東京, 日本

2017年2月28日 12時03分 (GMT +0900)
大田区 | | Change Station

海拔 0 ft 35.58 °N, 139.71 °E | Updated 4 minutes ago

多雲
多雲
49.3 °F
感覺像 49 °F
0.6
風 變化 風 來自 西北
Gusts 3.7 英里每小時

今日
高 -- | 低 -- °F
--% 降水機率
昨天
高 -- | 低 -- °F
Precip. -- 英寸
氣壓 30.27 英寸
能見度 6.2 英里
多雲 少數 2500 ft
多雲 3500 ft
風寒指數 49 °F
露點 30 °F
濕度 47%
降雨量 0.00 英寸
積雪深度 不適用。
6:12 AM 5:35 PM
眉月, 3% visible
METAR RJTT 280230Z 07011KT 9999 FEW025 BKN035 07/M01 Q1025 NOSIG RMK 1CU025 5SC035 A3029
氣壓 30.27 英寸
能見度 6.2 英里
多雲 少數 2500 ft
多雲 3500 ft
風寒指數 49 °F
露點 30 °F
濕度 47%
降雨量 0.00 英寸
積雪深度 不適用。
6:12 AM 5:35 PM
眉月, 3% visible
METAR RJTT 280230Z 07011KT 9999 FEW025 BKN035 07/M01 Q1025 NOSIG RMK 1CU025 5SC035 A3029

Get Your Daily Forecast Email!

Thanks for signing up!

Be on the lookout for a verification email in your inbox.

You'll start receiving the daily forecast at 8 AM.

×

10-Day Weather Forecast

No radar image for this location.
×

Almanac

天文

Feb. 28, 2017 昇起 降落
實際時間
民用曙暮光
航海曙暮光
天文學微明
月亮
可見光的長度
白晝時間
Tomorrow will be .
, % of the Moon is Illuminated

今天之最

國家高溫 國家低溫

Community

WunderPhotos

Upload Photos

1,962,540 照片已上傳!

WunderBlog® & News

Nearby

空氣質素

  空氣質素 空氣質素指數 污染物
Not available.

積雪量

Station 深度 海拔

地震活動

城市 距離 時間和日期
顯示的最小幅度是2.5。

沿海水溫

地點 溫度

Stations

附近的氣象站

氣象站位置 溫度 風寒指數 露點 濕度 Precip. 海拔 最近更新時間 類型